Latest Coastal Weather Observations for Derby

IDW60701

Issued at 8:32 am WST Tuesday 28 April 2015 (issued every 10 minutes, with the page automatically refreshed every 10 minutes)

About coastal observations | Map of coastal stations | Coastal observations for WA | Marine services | Other Formats
Station Details ID: 003032 Name: DERBY AERO Lat: -17.37 Lon: 123.66 Height: 6.2 m
Data from the previous 72 hours. | See also: Recent months at Derby
Date/Time
WST
Temp

°C
Wind Pressure Rain
since 9am
mm
Weather Cloud Vis
km
Sea
Height
m
Swell
Dir
 
Speed
knots
Gust
knots
hPa Trend Height
m
Period
s
Dir
28/08:30am 27.1 E 10 16 1015.4 - 0.0 - - - - - - -
28/08:00am 25.2 E 13 18 1015.1 - 0.0 - - - - - - -
28/07:30am 23.6 ESE 12 17 1015.1 - 0.0 - - - - - - -
28/07:00am 22.3 ESE 13 18 1014.9 - 0.0 - - - - - - -
28/06:30am 21.1 ESE 12 16 1014.6 - 0.0 - - - - - - -
28/06:00am 20.0 ESE 11 14 1014.5 - 0.0 - - - - - - -
28/05:30am 20.2 ESE 11 14 1014.2 - 0.0 - - - - - - -
28/05:00am 20.2 ESE 11 17 1014.1 - 0.0 - - - - - - -
28/04:30am 20.1 ESE 10 13 1014.0 - 0.0 - - - - - - -
28/04:00am 20.5 SE 10 13 1013.9 - 0.0 - - - - - - -
28/03:30am 21.0 ESE 11 14 1013.7 - 0.0 - - - - - - -
28/03:00am 21.4 ESE 11 12 1013.8 - 0.0 - - - - - - -
28/02:30am 20.8 ESE 9 11 1013.8 - 0.0 - - - - - - -
28/02:00am 20.1 SE 9 11 1013.9 - 0.0 - - - - - - -
28/01:30am 19.2 SE 8 10 1014.3 - 0.0 - - - - - - -
28/01:00am 18.0 SSE 7 8 1014.5 - 0.0 - - - - - - -
28/12:30am 19.1 SE 8 9 1014.6 - 0.0 - - - - - - -
28/12:00am 18.9 SSE 8 9 1014.9 - 0.0 - - - - - - -
 
Date/Time
WST
Temp

°C
Wind Pressure Rain
since 9am
mm
Weather Cloud Vis
km
Sea
Height
m
Swell
Dir
 
Speed
knots
Gust
knots
hPa Trend Height
m
Period
s
Dir
27/11:30pm 19.6 SE 7 8 1014.9 - 0.0 - - - - - - -
27/11:00pm 19.2 SSE 7 8 1015.0 - 0.0 - - - - - - -
27/10:30pm 19.8 SSE 6 8 1015.2 - 0.0 - - - - - - -
27/10:00pm 19.3 S 7 9 1015.2 - 0.0 - - - - - - -
27/09:30pm 22.7 SE 8 9 1015.2 - 0.0 - - - - - - -
27/09:00pm 23.2 SE 8 9 1015.1 - 0.0 - - - - - - -
27/08:30pm 22.5 SE 7 9 1015.1 - 0.0 - - - - - - -
27/08:00pm 22.0 SE 7 7 1014.9 - 0.0 - - - - - - -
27/07:30pm 22.0 SE 6 7 1014.6 - 0.0 - - - - - - -
27/07:00pm 22.2 SE 6 7 1014.2 - 0.0 - - - - - - -
27/06:30pm 23.8 SSE 6 7 1013.9 - 0.0 - - - - - - -
27/06:00pm 26.6 SE 6 7 1013.6 - 0.0 - - - - - - -
27/05:30pm 28.9 SE 7 8 1013.3 - 0.0 - - - - - - -
27/05:00pm 31.3 SE 8 12 1013.0 - 0.0 - - - - - - -
27/04:30pm 32.4 SSE 10 14 1012.8 - 0.0 - - - - - - -
27/04:00pm 33.2 SE 11 15 1012.4 - 0.0 - - - - - - -
27/03:30pm 33.7 SE 10 14 1012.0 - 0.0 - - - - - - -
27/03:00pm 33.7 SE 11 16 1011.9 - 0.0 - - - - - - -
27/02:30pm 33.3 ESE 9 15 1011.9 - 0.0 - - - - - - -
27/02:00pm 34.1 E 6 9 1012.0 - 0.0 - - - - - - -
27/01:30pm 33.8 ESE 7 12 1012.3 - 0.0 - - - - - - -
27/01:00pm 33.1 SE 9 13 1012.7 - 0.0 - - - - - - -
27/12:30pm 33.0 ENE 7 11 1013.2 - 0.0 - - - - - - -
27/12:00pm 32.2 SE 8 12 1013.8 - 0.0 - - - - - - -
27/11:30am 32.3 ESE 8 11 1014.3 - 0.0 - - - - - - -
27/11:00am 31.4 E 10 15 1015.0 - 0.0 - - - - - - -
27/10:30am 31.3 E 10 15 1015.2 - 0.0 - - - - - - -
27/10:00am 30.7 E 12 16 1015.5 - 0.0 - - - - - - -
27/09:30am 30.1 ENE 12 18 1015.8 - 0.0 - - - - - - -
27/09:00am 29.1 ENE 11 16 1015.9 - 0.0 - - - - - - -
27/08:30am 28.5 E 11 15 1015.8 - 0.0 - - - - - - -
27/08:00am 26.4 E 10 13 1015.7 - 0.0 - - - - - - -
27/07:30am 25.4 ESE 11 15 1015.5 - 0.0 - - - - - - -
27/07:00am 23.9 SE 9 12 1015.4 - 0.0 - - - - - - -
27/06:30am 23.1 ESE 9 11 1014.9 - 0.0 - - - - - - -
27/06:00am 23.5 E 11 14 1014.6 - 0.0 - - - - - - -
27/05:30am 23.8 E 12 16 1013.9 - 0.0 - - - - - - -
27/05:00am 22.2 ESE 9 13 1013.6 - 0.0 - - - - - - -
27/04:30am 22.1 SE 8 10 1013.5 - 0.0 - - - - - - -
27/04:00am 22.5 SE 7 9 1013.2 - 0.0 - - - - - - -
27/03:30am 23.5 SE 7 9 1013.2 - 0.0 - - - - - - -
27/03:00am 23.5 ESE 7 11 1013.0 - 0.0 - - - - - - -
27/02:30am 22.2 SE 5 6 1013.0 - 0.0 - - - - - - -
27/02:00am 21.6 SSW 7 8 1013.2 - 0.0 - - - - - - -
27/01:30am 23.1 SSE 5 6 1013.1 - 0.0 - - - - - - -
27/01:00am 23.7 E 4 5 1013.4 - 0.0 - - - - - - -
27/12:30am 23.4 ESE 5 6 1013.7 - 0.0 - - - - - - -
27/12:00am 24.5 SSE 7 9 1013.7 - 0.0 - - - - - - -
 
Date/Time
WST
Temp

°C
Wind Pressure Rain
since 9am
mm
Weather Cloud Vis
km
Sea
Height
m
Swell
Dir
 
Speed
knots
Gust
knots
hPa Trend Height
m
Period
s
Dir
26/11:30pm 25.0 SE 7 9 1013.8 - 0.0 - - - - - - -
26/11:00pm 24.1 SSE 6 8 1013.9 - 0.0 - - - - - - -
26/10:30pm 24.5 SE 7 8 1014.0 - 0.0 - - - - - - -
26/10:00pm 24.7 SE 6 7 1014.0 - 0.0 - - - - - - -
26/09:30pm 25.6 SE 6 8 1014.1 - 0.0 - - - - - - -
26/09:00pm 26.6 SE 6 8 1014.2 - 0.0 - - - - - - -
26/08:30pm 26.3 NNW 2 5 1014.4 - 0.0 - - - - - - -
26/08:00pm 24.9 WSW 1 3 1014.3 - 0.0 - - - - - - -
26/07:30pm 25.4 S 3 4 1014.0 - 0.0 - - - - - - -
26/07:00pm 27.2 SSW 3 4 1013.6 - 0.0 - - - - - - -
26/06:30pm 27.8 SE 3 4 1013.2 - 0.0 - - - - - - -
26/06:00pm 28.5 WNW 4 5 1012.8 - 0.0 - - - - - - -
26/05:30pm 29.8 WNW 6 9 1012.5 - 0.0 - - - - - - -
26/05:00pm 31.5 NW 10 12 1012.1 - 0.0 - - - - - - -
26/04:30pm 33.3 NW 8 10 1011.7 - 0.0 - - - - - - -
26/04:00pm 35.6 E 6 10 1011.3 - 0.0 - - - - - - -
26/03:30pm 35.7 E 7 11 1011.1 - 0.0 - - - - - - -
26/03:00pm 35.7 NE 5 10 1011.1 - 0.0 - - - - - - -
26/02:30pm 35.7 E 6 11 1011.2 - 0.0 - - - - - - -
26/02:00pm 35.8 ENE 6 12 1011.2 - 0.0 - - - - - - -
26/01:30pm 35.1 E 7 13 1011.4 - 0.0 - - - - - - -
26/01:00pm 35.5 NE 8 12 1011.6 - 0.0 - - - - - - -
26/12:30pm 34.9 ENE 10 15 1012.0 - 0.0 - - - - - - -
26/12:00pm 34.5 ENE 11 15 1012.4 - 0.0 - - - - - - -
26/11:30am 34.3 ENE 11 16 1012.5 - 0.0 - - - - - - -
26/11:00am 34.1 E 13 19 1012.9 - 0.0 - - - - - - -
26/10:30am 33.3 ENE 12 19 1013.5 - 0.0 - - - - - - -
26/10:00am 31.7 E 14 20 1013.7 - 0.0 - - - - - - -
26/09:30am 30.3 E 12 18 1014.2 - 0.0 - - - - - - -
26/09:00am 29.0 ESE 11 15 1014.3 - 0.0 - - - - - - -
26/08:30am 27.9 ESE 12 15 1014.0 - 0.0 - - - - - - -
26/08:00am 27.0 ESE 11 14 1013.7 - 0.0 - - - - - - -
26/07:30am 26.6 ESE 13 17 1013.3 - 0.0 - - - - - - -
26/07:00am 26.0 ESE 13 16 1013.0 - 0.0 - - - - - - -
26/06:30am 25.7 ESE 13 16 1012.8 - 0.0 - - - - - - -
26/06:00am 25.7 SE 13 16 1012.5 - 0.0 - - - - - - -
26/05:30am 26.1 ESE 13 17 1012.2 - 0.0 - - - - - - -
26/05:00am 26.5 ESE 13 17 1011.7 - 0.0 - - - - - - -
26/04:30am 26.5 ESE 13 17 1011.4 - 0.0 - - - - - - -
26/04:00am 27.0 ESE 14 19 1011.3 - 0.0 - - - - - - -
26/03:30am 27.3 SE 13 16 1011.5 - 0.0 - - - - - - -
26/03:00am 27.6 SE 12 17 1011.4 - 0.0 - - - - - - -
26/02:30am 27.9 SE 13 18 1011.6 - 0.0 - - - - - - -
26/02:00am 28.5 SE 13 17 1011.7 - 0.0 - - - - - - -
26/01:30am 28.8 SE 14 17 1011.8 - 0.0 - - - - - - -
26/01:00am 28.9 SE 12 18 1012.0 - 0.0 - - - - - - -
26/12:30am 28.3 SE 7 11 1012.2 - 0.0 - - - - - - -
26/12:00am 26.4 SSE 5 7 1012.2 - 0.0 - - - - - - -
 
Date/Time
WST
Temp

°C
Wind Pressure Rain
since 9am
mm
Weather Cloud Vis
km
Sea
Height
m
Swell
Dir
 
Speed
knots
Gust
knots
hPa Trend Height
m
Period
s
Dir
25/11:30pm 26.9 SSE 7 8 1012.5 - 0.0 - - - - - - -
25/11:00pm 26.8 SSE 7 8 1012.5 - 0.0 - - - - - - -
25/10:30pm 26.2 S 7 8 1012.7 - 0.0 - - - - - - -
25/10:00pm 26.6 SSE 6 6 1012.7 - 0.0 - - - - - - -
25/09:30pm 27.0 S 6 7 1012.9 - 0.0 - - - - - - -
25/09:00pm 27.6 SSE 5 6 1013.0 - 0.0 - - - - - - -
25/08:30pm 28.0 S 5 6 1013.2 - 0.0 - - - - - - -
25/08:00pm 28.0 SSW 4 4 1013.1 - 0.0 - - - - - - -
25/07:30pm 28.4 SSE 5 5 1012.7 - 0.0 - - - - - - -
25/07:00pm 28.7 S 5 6 1012.4 - 0.0 - - - - - - -
25/06:30pm 29.1 S 3 4 1011.9 - 0.0 - - - - - - -
25/06:00pm 29.8 S 6 7 1011.5 - 0.0 - - - - - - -
25/05:30pm 31.1 S 9 12 1011.2 - 0.0 - - - - - - -
25/05:00pm 32.1 SSE 11 14 1010.9 - 0.0 - - - - - - -
25/04:30pm 33.0 SSE 10 13 1010.5 - 0.0 - - - - - - -
25/04:00pm 33.9 SE 9 12 1010.1 - 0.0 - - - - - - -
25/03:30pm 34.2 SE 9 12 1009.8 - 0.0 - - - - - - -
25/03:00pm 35.5 SSE 9 14 1009.6 - 0.0 - - - - - - -
25/02:30pm 35.0 ESE 7 11 1009.7 - 0.0 - - - - - - -
25/02:00pm 34.4 SE 11 14 1009.8 - 0.0 - - - - - - -
25/01:30pm 33.9 ESE 9 13 1010.1 - 0.0 - - - - - - -
25/01:00pm 34.2 ESE 9 13 1010.3 - 0.0 - - - - - - -
25/12:30pm 33.9 ESE 9 12 1010.6 - 0.0 - - - - - - -
25/12:00pm 32.9 ESE 13 17 1010.8 - 0.0 - - - - - - -
25/11:30am 33.4 ESE 12 16 1011.3 - 0.0 - - - - - - -
25/11:00am 33.2 E 11 14 1011.6 - 0.0 - - - - - - -
25/10:30am 33.3 SE 11 15 1012.1 - 0.0 - - - - - - -
25/10:00am 32.1 SE 13 17 1012.5 - 0.0 - - - - - - -
25/09:30am 32.3 ESE 15 21 1012.5 - 0.0 - - - - - - -
25/09:00am 31.5 ESE 14 20 1012.7 - 0.0 - - - - - - -

Other Formats:

Comma delimited format used in spreadsheet applications
http://www.bom.gov.au/fwo/IDW60701/IDW60701.95205.axf

JavaScript Object Notation format (JSON) in row-major order
http://www.bom.gov.au/fwo/IDW60701/IDW60701.95205.json